Notice: Undefined index: language in /home/u294900127/public_html/vam/index.php on line 31
Aeroboteco

 INFORMAÇÕES METEOROLÓGICAS
METAR FOR SBVT
ADDS - METARS form results

(1636 UTC 22 February 2018)
Data provider http://aviationweather.gov/adds/metars/
 
Forecast for: SBVT (VITORIA/GOIABEIR, BR)
Text: TAF SBVT 221000Z 2212/2312 05013KT 9999 SCT025 TX30/2215Z TN25/2308Z RMK PEU
Forecast period: 1200 UTC 22 February 2018 to 1200 UTC 23 February 2018
Forecast type: FROM: standard forecast or significant change
Winds: from the NE (50 degrees) at 15 MPH (13 knots; 6.8 m/s)
Visibility: 6 or more miles (10+ km)
Clouds: scattered clouds at 2500 feet AGL
Weather: PE  (ice pellets)

 MAPA DO AEROPORTO

 INFORMAÇÕES DA PISTA
Pista 5 Tamanho da pista 5741 ft Largura da pista 148 ft
Elevação da pista 0 ft Ranhura da pista 0 ft Proa da pista 0
Pista 23 Tamanho da pista 5741 ft Largura da pista 148 ft
Elevação da pista 0 ft Ranhura da pista 0 ft Proa da pista 0

 FREQUÊNCIAS DO AEROPORTO
Tipo APP Nome VITORIA AP Frequência 119.85 MHZ
Tipo ATIS Nome VITORIA AT Frequência 127.575 MHZ
Tipo TWR Nome VITORIA TW Frequência 118.1 MHZ

 AUXÍLIOS DE NAVEGAÇÃO PRÓXIMOS AO AEROPORTO
Tipo VOR-DME Nome Vitoria Frequência 115500 KHZ
Tipo NDB Nome Vitoria Frequência 350 KHZ



Powered by Virtual Airlines Manager [v2.6.2]